sensor_id;sensor_type;location;lat;lon;timestamp;P1;durP1;ratioP1;P2;durP2;ratioP2
21497;SDS011;10910;50.932;0.246;2022-09-09T00:00:38;0.60;;;0.60;;
21497;SDS011;10910;50.932;0.246;2022-09-09T00:03:12;0.50;;;0.50;;
21497;SDS011;10910;50.932;0.246;2022-09-09T00:06:23;0.40;;;0.40;;
21497;SDS011;10910;50.932;0.246;2022-09-09T00:08:36;0.40;;;0.40;;
21497;SDS011;10910;50.932;0.246;2022-09-09T00:11:04;0.50;;;0.50;;
21497;SDS011;10910;50.932;0.246;2022-09-09T00:13:34;0.60;;;0.60;;
21497;SDS011;10910;50.932;0.246;2022-09-09T00:16:14;0.40;;;0.40;;
21497;SDS011;10910;50.932;0.246;2022-09-09T00:18:52;0.60;;;0.60;;
21497;SDS011;10910;50.932;0.246;2022-09-09T00:21:23;0.60;;;0.60;;
21497;SDS011;10910;50.932;0.246;2022-09-09T00:23:51;0.60;;;0.60;;
21497;SDS011;10910;50.932;0.246;2022-09-09T00:26:24;0.50;;;0.50;;
21497;SDS011;10910;50.932;0.246;2022-09-09T00:28:59;0.60;;;0.60;;
21497;SDS011;10910;50.932;0.246;2022-09-09T00:31:27;0.52;;;0.52;;
21497;SDS011;10910;50.932;0.246;2022-09-09T00:33:55;0.50;;;0.50;;
21497;SDS011;10910;50.932;0.246;2022-09-09T00:36:24;0.60;;;0.60;;
21497;SDS011;10910;50.932;0.246;2022-09-09T00:38:58;0.60;;;0.60;;
21497;SDS011;10910;50.932;0.246;2022-09-09T00:41:32;0.50;;;0.50;;
21497;SDS011;10910;50.932;0.246;2022-09-09T00:44:14;0.60;;;0.60;;
21497;SDS011;10910;50.932;0.246;2022-09-09T00:49:24;0.55;;;0.55;;
21497;SDS011;10910;50.932;0.246;2022-09-09T00:54:28;0.60;;;0.60;;
21497;SDS011;10910;50.932;0.246;2022-09-09T00:57:36;0.57;;;0.57;;
21497;SDS011;10910;50.932;0.246;2022-09-09T01:05:19;0.55;;;0.55;;
21497;SDS011;10910;50.932;0.246;2022-09-09T01:07:47;0.50;;;0.50;;
21497;SDS011;10910;50.932;0.246;2022-09-09T01:10:18;0.60;;;0.60;;
21497;SDS011;10910;50.932;0.246;2022-09-09T01:12:47;0.60;;;0.60;;
21497;SDS011;10910;50.932;0.246;2022-09-09T01:15:20;0.60;;;0.60;;
21497;SDS011;10910;50.932;0.246;2022-09-09T01:18:30;0.50;;;0.50;;
21497;SDS011;10910;50.932;0.246;2022-09-09T01:20:39;0.60;;;0.60;;
21497;SDS011;10910;50.932;0.246;2022-09-09T01:26:13;0.60;;;0.60;;
21497;SDS011;10910;50.932;0.246;2022-09-09T01:28:45;0.40;;;0.40;;
21497;SDS011;10910;50.932;0.246;2022-09-09T01:31:14;0.50;;;0.50;;
21497;SDS011;10910;50.932;0.246;2022-09-09T01:33:41;0.50;;;0.50;;
21497;SDS011;10910;50.932;0.246;2022-09-09T01:38:35;0.60;;;0.60;;
21497;SDS011;10910;50.932;0.246;2022-09-09T01:41:02;0.52;;;0.52;;
21497;SDS011;10910;50.932;0.246;2022-09-09T01:43:29;0.40;;;0.40;;
21497;SDS011;10910;50.932;0.246;2022-09-09T01:45:55;0.60;;;0.60;;
21497;SDS011;10910;50.932;0.246;2022-09-09T01:48:22;0.60;;;0.60;;
21497;SDS011;10910;50.932;0.246;2022-09-09T01:50:49;0.50;;;0.50;;
21497;SDS011;10910;50.932;0.246;2022-09-09T01:53:16;0.60;;;0.60;;
21497;SDS011;10910;50.932;0.246;2022-09-09T01:55:45;0.50;;;0.50;;
21497;SDS011;10910;50.932;0.246;2022-09-09T01:58:21;0.50;;;0.50;;
21497;SDS011;10910;50.932;0.246;2022-09-09T02:00:56;0.50;;;0.50;;
21497;SDS011;10910;50.932;0.246;2022-09-09T02:03:25;0.50;;;0.50;;
21497;SDS011;10910;50.932;0.246;2022-09-09T02:06:15;0.40;;;0.40;;
21497;SDS011;10910;50.932;0.246;2022-09-09T02:08:54;0.60;;;0.60;;
21497;SDS011;10910;50.932;0.246;2022-09-09T02:11:25;0.50;;;0.50;;
21497;SDS011;10910;50.932;0.246;2022-09-09T02:13:53;0.50;;;0.50;;
21497;SDS011;10910;50.932;0.246;2022-09-09T02:16:28;0.55;;;0.55;;
21497;SDS011;10910;50.932;0.246;2022-09-09T02:21:28;0.60;;;0.60;;
21497;SDS011;10910;50.932;0.246;2022-09-09T02:23:56;0.43;;;0.43;;
21497;SDS011;10910;50.932;0.246;2022-09-09T02:26:22;0.50;;;0.50;;
21497;SDS011;10910;50.932;0.246;2022-09-09T02:28:50;0.40;;;0.40;;
21497;SDS011;10910;50.932;0.246;2022-09-09T02:31:18;0.50;;;0.50;;
21497;SDS011;10910;50.932;0.246;2022-09-09T02:33:46;0.50;;;0.50;;
21497;SDS011;10910;50.932;0.246;2022-09-09T02:36:17;0.60;;;0.60;;
21497;SDS011;10910;50.932;0.246;2022-09-09T02:38:47;0.47;;;0.47;;
21497;SDS011;10910;50.932;0.246;2022-09-09T02:41:17;0.50;;;0.50;;
21497;SDS011;10910;50.932;0.246;2022-09-09T02:43:46;0.50;;;0.50;;
21497;SDS011;10910;50.932;0.246;2022-09-09T02:51:08;0.40;;;0.40;;
21497;SDS011;10910;50.932;0.246;2022-09-09T02:53:43;0.40;;;0.40;;
21497;SDS011;10910;50.932;0.246;2022-09-09T02:56:14;0.40;;;0.40;;
21497;SDS011;10910;50.932;0.246;2022-09-09T02:58:43;0.50;;;0.50;;
21497;SDS011;10910;50.932;0.246;2022-09-09T03:01:11;0.60;;;0.60;;
21497;SDS011;10910;50.932;0.246;2022-09-09T03:03:37;0.40;;;0.40;;
21497;SDS011;10910;50.932;0.246;2022-09-09T03:06:03;0.50;;;0.50;;
21497;SDS011;10910;50.932;0.246;2022-09-09T03:08:30;0.50;;;0.50;;
21497;SDS011;10910;50.932;0.246;2022-09-09T03:10:58;0.60;;;0.60;;
21497;SDS011;10910;50.932;0.246;2022-09-09T03:13:26;0.50;;;0.50;;
21497;SDS011;10910;50.932;0.246;2022-09-09T03:15:52;0.40;;;0.40;;
21497;SDS011;10910;50.932;0.246;2022-09-09T03:18:18;0.57;;;0.57;;
21497;SDS011;10910;50.932;0.246;2022-09-09T03:20:45;0.50;;;0.50;;
21497;SDS011;10910;50.932;0.246;2022-09-09T03:23:13;0.60;;;0.60;;
21497;SDS011;10910;50.932;0.246;2022-09-09T03:25:39;0.55;;;0.55;;
21497;SDS011;10910;50.932;0.246;2022-09-09T03:28:11;0.50;;;0.50;;
21497;SDS011;10910;50.932;0.246;2022-09-09T03:30:37;0.50;;;0.50;;
21497;SDS011;10910;50.932;0.246;2022-09-09T03:33:03;0.60;;;0.60;;
21497;SDS011;10910;50.932;0.246;2022-09-09T03:35:29;0.55;;;0.55;;
21497;SDS011;10910;50.932;0.246;2022-09-09T03:37:56;0.50;;;0.50;;
21497;SDS011;10910;50.932;0.246;2022-09-09T03:40:22;0.60;;;0.60;;
21497;SDS011;10910;50.932;0.246;2022-09-09T03:42:48;0.45;;;0.45;;
21497;SDS011;10910;50.932;0.246;2022-09-09T03:45:14;0.50;;;0.50;;
21497;SDS011;10910;50.932;0.246;2022-09-09T03:47:41;0.50;;;0.50;;
21497;SDS011;10910;50.932;0.246;2022-09-09T03:50:07;0.50;;;0.50;;
21497;SDS011;10910;50.932;0.246;2022-09-09T03:52:36;0.52;;;0.52;;
21497;SDS011;10910;50.932;0.246;2022-09-09T03:55:02;0.52;;;0.52;;
21497;SDS011;10910;50.932;0.246;2022-09-09T03:57:28;0.60;;;0.60;;
21497;SDS011;10910;50.932;0.246;2022-09-09T03:59:55;0.60;;;0.60;;
21497;SDS011;10910;50.932;0.246;2022-09-09T04:02:21;0.40;;;0.40;;
21497;SDS011;10910;50.932;0.246;2022-09-09T04:04:47;0.60;;;0.60;;
21497;SDS011;10910;50.932;0.246;2022-09-09T04:07:13;0.60;;;0.60;;
21497;SDS011;10910;50.932;0.246;2022-09-09T04:09:39;0.60;;;0.60;;
21497;SDS011;10910;50.932;0.246;2022-09-09T04:12:05;0.60;;;0.60;;
21497;SDS011;10910;50.932;0.246;2022-09-09T04:14:31;0.50;;;0.50;;
21497;SDS011;10910;50.932;0.246;2022-09-09T04:16:57;0.57;;;0.57;;
21497;SDS011;10910;50.932;0.246;2022-09-09T04:19:24;0.40;;;0.40;;
21497;SDS011;10910;50.932;0.246;2022-09-09T04:21:51;0.50;;;0.50;;
21497;SDS011;10910;50.932;0.246;2022-09-09T04:24:17;0.60;;;0.60;;
21497;SDS011;10910;50.932;0.246;2022-09-09T04:26:43;0.40;;;0.40;;
21497;SDS011;10910;50.932;0.246;2022-09-09T04:29:10;0.50;;;0.50;;
21497;SDS011;10910;50.932;0.246;2022-09-09T04:31:36;0.40;;;0.40;;
21497;SDS011;10910;50.932;0.246;2022-09-09T04:34:07;0.50;;;0.50;;
21497;SDS011;10910;50.932;0.246;2022-09-09T04:36:33;0.50;;;0.50;;
21497;SDS011;10910;50.932;0.246;2022-09-09T04:38:59;0.50;;;0.50;;
21497;SDS011;10910;50.932;0.246;2022-09-09T04:41:26;0.50;;;0.50;;
21497;SDS011;10910;50.932;0.246;2022-09-09T04:43:53;0.40;;;0.40;;
21497;SDS011;10910;50.932;0.246;2022-09-09T04:46:20;0.50;;;0.50;;
21497;SDS011;10910;50.932;0.246;2022-09-09T04:48:46;0.50;;;0.50;;
21497;SDS011;10910;50.932;0.246;2022-09-09T04:51:13;0.50;;;0.50;;
21497;SDS011;10910;50.932;0.246;2022-09-09T04:53:39;0.60;;;0.60;;
21497;SDS011;10910;50.932;0.246;2022-09-09T04:56:06;0.45;;;0.45;;
21497;SDS011;10910;50.932;0.246;2022-09-09T04:58:32;0.50;;;0.50;;
21497;SDS011;10910;50.932;0.246;2022-09-09T05:01:03;0.50;;;0.50;;
21497;SDS011;10910;50.932;0.246;2022-09-09T05:03:29;0.40;;;0.40;;
21497;SDS011;10910;50.932;0.246;2022-09-09T05:06:01;0.60;;;0.60;;
21497;SDS011;10910;50.932;0.246;2022-09-09T05:08:35;0.50;;;0.50;;
21497;SDS011;10910;50.932;0.246;2022-09-09T05:11:02;0.50;;;0.50;;
21497;SDS011;10910;50.932;0.246;2022-09-09T05:13:28;0.50;;;0.50;;
21497;SDS011;10910;50.932;0.246;2022-09-09T05:15:56;0.40;;;0.40;;
21497;SDS011;10910;50.932;0.246;2022-09-09T05:18:22;0.60;;;0.60;;
21497;SDS011;10910;50.932;0.246;2022-09-09T05:20:49;0.60;;;0.60;;
21497;SDS011;10910;50.932;0.246;2022-09-09T05:23:16;0.60;;;0.60;;
21497;SDS011;10910;50.932;0.246;2022-09-09T05:25:42;0.50;;;0.50;;
21497;SDS011;10910;50.932;0.246;2022-09-09T05:28:08;0.50;;;0.50;;
21497;SDS011;10910;50.932;0.246;2022-09-09T05:30:35;0.60;;;0.60;;
21497;SDS011;10910;50.932;0.246;2022-09-09T05:33:01;0.60;;;0.60;;
21497;SDS011;10910;50.932;0.246;2022-09-09T05:35:27;0.50;;;0.50;;
21497;SDS011;10910;50.932;0.246;2022-09-09T05:37:53;0.50;;;0.50;;
21497;SDS011;10910;50.932;0.246;2022-09-09T05:40:21;0.50;;;0.50;;
21497;SDS011;10910;50.932;0.246;2022-09-09T05:42:47;0.60;;;0.60;;
21497;SDS011;10910;50.932;0.246;2022-09-09T05:45:13;0.50;;;0.50;;
21497;SDS011;10910;50.932;0.246;2022-09-09T05:47:40;0.70;;;0.70;;
21497;SDS011;10910;50.932;0.246;2022-09-09T05:50:06;0.50;;;0.50;;
21497;SDS011;10910;50.932;0.246;2022-09-09T05:52:32;0.60;;;0.60;;
21497;SDS011;10910;50.932;0.246;2022-09-09T05:54:58;0.50;;;0.50;;
21497;SDS011;10910;50.932;0.246;2022-09-09T05:57:25;0.50;;;0.50;;
21497;SDS011;10910;50.932;0.246;2022-09-09T05:59:51;0.40;;;0.40;;
21497;SDS011;10910;50.932;0.246;2022-09-09T06:02:17;0.50;;;0.50;;
21497;SDS011;10910;50.932;0.246;2022-09-09T06:04:43;0.50;;;0.50;;
21497;SDS011;10910;50.932;0.246;2022-09-09T06:07:09;0.55;;;0.55;;
21497;SDS011;10910;50.932;0.246;2022-09-09T06:09:35;0.50;;;0.50;;
21497;SDS011;10910;50.932;0.246;2022-09-09T06:12:01;0.50;;;0.50;;
21497;SDS011;10910;50.932;0.246;2022-09-09T06:14:27;0.50;;;0.50;;
21497;SDS011;10910;50.932;0.246;2022-09-09T06:16:53;0.50;;;0.50;;
21497;SDS011;10910;50.932;0.246;2022-09-09T06:19:19;0.50;;;0.50;;
21497;SDS011;10910;50.932;0.246;2022-09-09T06:21:45;0.50;;;0.50;;
21497;SDS011;10910;50.932;0.246;2022-09-09T06:24:12;0.50;;;0.50;;
21497;SDS011;10910;50.932;0.246;2022-09-09T06:26:42;0.50;;;0.50;;
21497;SDS011;10910;50.932;0.246;2022-09-09T06:29:08;0.50;;;0.50;;
21497;SDS011;10910;50.932;0.246;2022-09-09T06:31:35;0.50;;;0.50;;
21497;SDS011;10910;50.932;0.246;2022-09-09T06:34:03;0.50;;;0.50;;
21497;SDS011;10910;50.932;0.246;2022-09-09T06:36:31;0.60;;;0.60;;
21497;SDS011;10910;50.932;0.246;2022-09-09T06:38:57;0.50;;;0.50;;
21497;SDS011;10910;50.932;0.246;2022-09-09T06:41:24;0.50;;;0.50;;
21497;SDS011;10910;50.932;0.246;2022-09-09T06:43:54;0.50;;;0.50;;
21497;SDS011;10910;50.932;0.246;2022-09-09T06:46:24;0.50;;;0.50;;
21497;SDS011;10910;50.932;0.246;2022-09-09T06:48:53;0.60;;;0.60;;
21497;SDS011;10910;50.932;0.246;2022-09-09T06:51:21;0.50;;;0.50;;
21497;SDS011;10910;50.932;0.246;2022-09-09T06:53:51;0.55;;;0.55;;
21497;SDS011;10910;50.932;0.246;2022-09-09T06:56:34;0.50;;;0.50;;
21497;SDS011;10910;50.932;0.246;2022-09-09T06:59:01;0.50;;;0.50;;
21497;SDS011;10910;50.932;0.246;2022-09-09T07:01:36;0.40;;;0.40;;
21497;SDS011;10910;50.932;0.246;2022-09-09T07:04:03;0.50;;;0.50;;
21497;SDS011;10910;50.932;0.246;2022-09-09T07:06:30;0.40;;;0.40;;
21497;SDS011;10910;50.932;0.246;2022-09-09T07:09:00;0.60;;;0.60;;
21497;SDS011;10910;50.932;0.246;2022-09-09T07:11:29;0.50;;;0.50;;
21497;SDS011;10910;50.932;0.246;2022-09-09T07:13:59;0.57;;;0.57;;
21497;SDS011;10910;50.932;0.246;2022-09-09T07:16:26;0.50;;;0.50;;
21497;SDS011;10910;50.932;0.246;2022-09-09T07:18:52;0.50;;;0.50;;
21497;SDS011;10910;50.932;0.246;2022-09-09T07:21:22;0.40;;;0.40;;
21497;SDS011;10910;50.932;0.246;2022-09-09T07:23:49;0.40;;;0.40;;
21497;SDS011;10910;50.932;0.246;2022-09-09T07:26:17;0.40;;;0.40;;
21497;SDS011;10910;50.932;0.246;2022-09-09T07:28:44;0.40;;;0.40;;
21497;SDS011;10910;50.932;0.246;2022-09-09T07:31:13;0.60;;;0.60;;
21497;SDS011;10910;50.932;0.246;2022-09-09T07:33:41;0.40;;;0.40;;
21497;SDS011;10910;50.932;0.246;2022-09-09T07:36:09;0.50;;;0.50;;
21497;SDS011;10910;50.932;0.246;2022-09-09T07:38:38;0.50;;;0.50;;
21497;SDS011;10910;50.932;0.246;2022-09-09T07:41:05;0.50;;;0.50;;
21497;SDS011;10910;50.932;0.246;2022-09-09T07:43:32;0.47;;;0.47;;
21497;SDS011;10910;50.932;0.246;2022-09-09T07:45:58;0.40;;;0.40;;
21497;SDS011;10910;50.932;0.246;2022-09-09T07:48:26;0.40;;;0.40;;
21497;SDS011;10910;50.932;0.246;2022-09-09T07:50:52;0.47;;;0.47;;
21497;SDS011;10910;50.932;0.246;2022-09-09T07:53:19;0.43;;;0.43;;
21497;SDS011;10910;50.932;0.246;2022-09-09T07:55:45;0.38;;;0.38;;
21497;SDS011;10910;50.932;0.246;2022-09-09T07:58:12;0.50;;;0.50;;
21497;SDS011;10910;50.932;0.246;2022-09-09T08:00:38;0.40;;;0.40;;
21497;SDS011;10910;50.932;0.246;2022-09-09T08:03:08;0.40;;;0.40;;
21497;SDS011;10910;50.932;0.246;2022-09-09T08:05:34;0.40;;;0.40;;
21497;SDS011;10910;50.932;0.246;2022-09-09T08:08:00;0.40;;;0.40;;
21497;SDS011;10910;50.932;0.246;2022-09-09T08:10:28;0.50;;;0.50;;
21497;SDS011;10910;50.932;0.246;2022-09-09T08:12:54;0.50;;;0.50;;
21497;SDS011;10910;50.932;0.246;2022-09-09T08:15:20;0.40;;;0.40;;
21497;SDS011;10910;50.932;0.246;2022-09-09T08:17:46;0.47;;;0.47;;
21497;SDS011;10910;50.932;0.246;2022-09-09T08:20:13;0.38;;;0.38;;
21497;SDS011;10910;50.932;0.246;2022-09-09T08:22:39;0.30;;;0.30;;
21497;SDS011;10910;50.932;0.246;2022-09-09T08:25:07;0.30;;;0.30;;
21497;SDS011;10910;50.932;0.246;2022-09-09T08:27:33;0.40;;;0.40;;
21497;SDS011;10910;50.932;0.246;2022-09-09T08:29:59;0.50;;;0.50;;
21497;SDS011;10910;50.932;0.246;2022-09-09T08:32:25;0.45;;;0.45;;
21497;SDS011;10910;50.932;0.246;2022-09-09T08:34:51;0.40;;;0.40;;
21497;SDS011;10910;50.932;0.246;2022-09-09T08:37:17;0.40;;;0.40;;
21497;SDS011;10910;50.932;0.246;2022-09-09T08:39:45;0.40;;;0.40;;
21497;SDS011;10910;50.932;0.246;2022-09-09T08:49:58;0.40;;;0.40;;
21497;SDS011;10910;50.932;0.246;2022-09-09T08:52:29;0.30;;;0.30;;
21497;SDS011;10910;50.932;0.246;2022-09-09T08:54:56;0.40;;;0.40;;
21497;SDS011;10910;50.932;0.246;2022-09-09T08:57:40;0.30;;;0.30;;
21497;SDS011;10910;50.932;0.246;2022-09-09T09:00:09;0.28;;;0.28;;
21497;SDS011;10910;50.932;0.246;2022-09-09T09:03:19;0.40;;;0.40;;
21497;SDS011;10910;50.932;0.246;2022-09-09T09:10:56;0.30;;;0.30;;
21497;SDS011;10910;50.932;0.246;2022-09-09T09:15:55;0.35;;;0.35;;
21497;SDS011;10910;50.932;0.246;2022-09-09T09:18:25;0.35;;;0.35;;
21497;SDS011;10910;50.932;0.246;2022-09-09T09:23:54;0.40;;;0.40;;
21497;SDS011;10910;50.932;0.246;2022-09-09T09:26:23;0.40;;;0.40;;
21497;SDS011;10910;50.932;0.246;2022-09-09T09:28:58;0.30;;;0.30;;
21497;SDS011;10910;50.932;0.246;2022-09-09T09:31:28;0.40;;;0.40;;
21497;SDS011;10910;50.932;0.246;2022-09-09T09:33:54;0.32;;;0.32;;
21497;SDS011;10910;50.932;0.246;2022-09-09T09:36:25;0.40;;;0.40;;
21497;SDS011;10910;50.932;0.246;2022-09-09T09:38:59;0.30;;;0.30;;
21497;SDS011;10910;50.932;0.246;2022-09-09T09:44:00;0.40;;;0.40;;
21497;SDS011;10910;50.932;0.246;2022-09-09T09:46:27;0.30;;;0.30;;
21497;SDS011;10910;50.932;0.246;2022-09-09T09:49:03;0.30;;;0.30;;
21497;SDS011;10910;50.932;0.246;2022-09-09T09:51:30;0.35;;;0.35;;
21497;SDS011;10910;50.932;0.246;2022-09-09T09:54:08;0.30;;;0.30;;
21497;SDS011;10910;50.932;0.246;2022-09-09T09:56:35;0.40;;;0.40;;
21497;SDS011;10910;50.932;0.246;2022-09-09T09:59:01;0.35;;;0.35;;
21497;SDS011;10910;50.932;0.246;2022-09-09T10:01:28;0.50;;;0.50;;
21497;SDS011;10910;50.932;0.246;2022-09-09T10:03:57;0.50;;;0.50;;
21497;SDS011;10910;50.932;0.246;2022-09-09T10:06:33;0.40;;;0.40;;
21497;SDS011;10910;50.932;0.246;2022-09-09T10:09:00;0.30;;;0.30;;
21497;SDS011;10910;50.932;0.246;2022-09-09T10:11:33;0.35;;;0.35;;
21497;SDS011;10910;50.932;0.246;2022-09-09T10:19:41;0.30;;;0.30;;
21497;SDS011;10910;50.932;0.246;2022-09-09T10:24:50;0.30;;;0.30;;
21497;SDS011;10910;50.932;0.246;2022-09-09T10:37:41;0.30;;;0.30;;
21497;SDS011;10910;50.932;0.246;2022-09-09T10:40:50;0.50;;;0.50;;
21497;SDS011;10910;50.932;0.246;2022-09-09T10:43:15;0.43;;;0.43;;
21497;SDS011;10910;50.932;0.246;2022-09-09T10:48:39;0.40;;;0.40;;
21497;SDS011;10910;50.932;0.246;2022-09-09T10:51:05;0.40;;;0.40;;
21497;SDS011;10910;50.932;0.246;2022-09-09T10:53:42;0.30;;;0.30;;
21497;SDS011;10910;50.932;0.246;2022-09-09T10:56:15;0.30;;;0.30;;
21497;SDS011;10910;50.932;0.246;2022-09-09T10:58:49;0.30;;;0.30;;
21497;SDS011;10910;50.932;0.246;2022-09-09T11:03:43;0.30;;;0.30;;
21497;SDS011;10910;50.932;0.246;2022-09-09T11:06:19;0.40;;;0.40;;
21497;SDS011;10910;50.932;0.246;2022-09-09T11:08:46;0.30;;;0.30;;
21497;SDS011;10910;50.932;0.246;2022-09-09T11:11:30;0.30;;;0.30;;
21497;SDS011;10910;50.932;0.246;2022-09-09T11:18:50;0.40;;;0.40;;
21497;SDS011;10910;50.932;0.246;2022-09-09T11:21:26;0.40;;;0.40;;
21497;SDS011;10910;50.932;0.246;2022-09-09T11:23:57;0.30;;;0.30;;
21497;SDS011;10910;50.932;0.246;2022-09-09T11:26:28;0.30;;;0.30;;
21497;SDS011;10910;50.932;0.246;2022-09-09T11:34:42;0.30;;;0.30;;
21497;SDS011;10910;50.932;0.246;2022-09-09T11:42:42;0.40;;;0.40;;
21497;SDS011;10910;50.932;0.246;2022-09-09T11:45:09;0.30;;;0.30;;
21497;SDS011;10910;50.932;0.246;2022-09-09T11:47:36;0.28;;;0.28;;
21497;SDS011;10910;50.932;0.246;2022-09-09T11:52:38;0.20;;;0.20;;
21497;SDS011;10910;50.932;0.246;2022-09-09T11:55:25;0.30;;;0.30;;
21497;SDS011;10910;50.932;0.246;2022-09-09T11:58:01;0.30;;;0.30;;
21497;SDS011;10910;50.932;0.246;2022-09-09T12:02:57;0.25;;;0.25;;
21497;SDS011;10910;50.932;0.246;2022-09-09T12:05:24;0.30;;;0.30;;
21497;SDS011;10910;50.932;0.246;2022-09-09T12:08:01;0.30;;;0.30;;
21497;SDS011;10910;50.932;0.246;2022-09-09T12:10:35;0.20;;;0.20;;
21497;SDS011;10910;50.932;0.246;2022-09-09T12:13:23;0.20;;;0.20;;
21497;SDS011;10910;50.932;0.246;2022-09-09T12:15:50;0.20;;;0.20;;
21497;SDS011;10910;50.932;0.246;2022-09-09T12:28:26;0.30;;;0.30;;
21497;SDS011;10910;50.932;0.246;2022-09-09T12:30:58;0.30;;;0.30;;
21497;SDS011;10910;50.932;0.246;2022-09-09T12:33:32;0.30;;;0.30;;
21497;SDS011;10910;50.932;0.246;2022-09-09T12:36:00;0.30;;;0.30;;
21497;SDS011;10910;50.932;0.246;2022-09-09T12:38:31;0.40;;;0.40;;
21497;SDS011;10910;50.932;0.246;2022-09-09T12:41:00;0.50;;;0.50;;
21497;SDS011;10910;50.932;0.246;2022-09-09T12:43:27;0.40;;;0.40;;
21497;SDS011;10910;50.932;0.246;2022-09-09T12:45:57;0.30;;;0.30;;
21497;SDS011;10910;50.932;0.246;2022-09-09T12:48:30;0.40;;;0.40;;
21497;SDS011;10910;50.932;0.246;2022-09-09T12:50:58;0.40;;;0.40;;
21497;SDS011;10910;50.932;0.246;2022-09-09T12:56:01;0.30;;;0.30;;
21497;SDS011;10910;50.932;0.246;2022-09-09T12:58:28;0.30;;;0.30;;
21497;SDS011;10910;50.932;0.246;2022-09-09T13:00:58;0.30;;;0.30;;
21497;SDS011;10910;50.932;0.246;2022-09-09T13:03:25;0.40;;;0.40;;
21497;SDS011;10910;50.932;0.246;2022-09-09T13:05:51;0.40;;;0.40;;
21497;SDS011;10910;50.932;0.246;2022-09-09T13:08:18;0.40;;;0.40;;
21497;SDS011;10910;50.932;0.246;2022-09-09T13:10:51;0.30;;;0.30;;
21497;SDS011;10910;50.932;0.246;2022-09-09T13:13:23;0.30;;;0.30;;
21497;SDS011;10910;50.932;0.246;2022-09-09T13:15:51;0.30;;;0.30;;
21497;SDS011;10910;50.932;0.246;2022-09-09T13:18:21;0.20;;;0.20;;
21497;SDS011;10910;50.932;0.246;2022-09-09T13:20:51;0.30;;;0.30;;
21497;SDS011;10910;50.932;0.246;2022-09-09T13:23:17;0.25;;;0.25;;
21497;SDS011;10910;50.932;0.246;2022-09-09T13:25:58;0.20;;;0.20;;
21497;SDS011;10910;50.932;0.246;2022-09-09T13:28:25;0.30;;;0.30;;
21497;SDS011;10910;50.932;0.246;2022-09-09T13:31:02;0.30;;;0.30;;
21497;SDS011;10910;50.932;0.246;2022-09-09T13:33:30;0.20;;;0.20;;
21497;SDS011;10910;50.932;0.246;2022-09-09T13:36:05;0.30;;;0.30;;
21497;SDS011;10910;50.932;0.246;2022-09-09T13:38:35;0.30;;;0.30;;
21497;SDS011;10910;50.932;0.246;2022-09-09T13:41:06;0.30;;;0.30;;
21497;SDS011;10910;50.932;0.246;2022-09-09T13:43:38;0.30;;;0.30;;
21497;SDS011;10910;50.932;0.246;2022-09-09T13:48:59;0.20;;;0.20;;
21497;SDS011;10910;50.932;0.246;2022-09-09T13:54:11;0.20;;;0.20;;
21497;SDS011;10910;50.932;0.246;2022-09-09T13:56:39;0.20;;;0.20;;
21497;SDS011;10910;50.932;0.246;2022-09-09T13:59:09;0.20;;;0.20;;
21497;SDS011;10910;50.932;0.246;2022-09-09T14:01:37;0.20;;;0.20;;
21497;SDS011;10910;50.932;0.246;2022-09-09T14:04:03;0.30;;;0.30;;
21497;SDS011;10910;50.932;0.246;2022-09-09T14:06:31;0.30;;;0.30;;
21497;SDS011;10910;50.932;0.246;2022-09-09T14:08:57;0.30;;;0.30;;
21497;SDS011;10910;50.932;0.246;2022-09-09T14:11:23;0.30;;;0.30;;
21497;SDS011;10910;50.932;0.246;2022-09-09T14:13:50;0.40;;;0.40;;
21497;SDS011;10910;50.932;0.246;2022-09-09T14:16:16;0.30;;;0.30;;
21497;SDS011;10910;50.932;0.246;2022-09-09T14:18:43;0.40;;;0.40;;
21497;SDS011;10910;50.932;0.246;2022-09-09T14:21:09;0.40;;;0.40;;
21497;SDS011;10910;50.932;0.246;2022-09-09T14:23:36;0.35;;;0.35;;
21497;SDS011;10910;50.932;0.246;2022-09-09T14:26:03;0.38;;;0.38;;
21497;SDS011;10910;50.932;0.246;2022-09-09T14:28:29;0.30;;;0.30;;
21497;SDS011;10910;50.932;0.246;2022-09-09T14:30:58;0.40;;;0.40;;
21497;SDS011;10910;50.932;0.246;2022-09-09T14:33:26;0.30;;;0.30;;
21497;SDS011;10910;50.932;0.246;2022-09-09T14:36:00;0.50;;;0.50;;
21497;SDS011;10910;50.932;0.246;2022-09-09T14:38:31;0.35;;;0.35;;
21497;SDS011;10910;50.932;0.246;2022-09-09T14:40:58;0.40;;;0.40;;
21497;SDS011;10910;50.932;0.246;2022-09-09T14:43:24;0.40;;;0.40;;
21497;SDS011;10910;50.932;0.246;2022-09-09T14:45:52;0.40;;;0.40;;
21497;SDS011;10910;50.932;0.246;2022-09-09T14:48:21;0.40;;;0.40;;
21497;SDS011;10910;50.932;0.246;2022-09-09T14:50:47;0.30;;;0.30;;
21497;SDS011;10910;50.932;0.246;2022-09-09T14:53:15;0.30;;;0.30;;
21497;SDS011;10910;50.932;0.246;2022-09-09T14:55:41;0.30;;;0.30;;
21497;SDS011;10910;50.932;0.246;2022-09-09T14:58:08;0.28;;;0.28;;
21497;SDS011;10910;50.932;0.246;2022-09-09T15:00:34;0.20;;;0.20;;
21497;SDS011;10910;50.932;0.246;2022-09-09T15:03:00;0.20;;;0.20;;
21497;SDS011;10910;50.932;0.246;2022-09-09T15:05:26;0.20;;;0.20;;
21497;SDS011;10910;50.932;0.246;2022-09-09T15:07:53;0.20;;;0.20;;
21497;SDS011;10910;50.932;0.246;2022-09-09T15:10:19;0.20;;;0.20;;
21497;SDS011;10910;50.932;0.246;2022-09-09T15:12:46;0.20;;;0.20;;
21497;SDS011;10910;50.932;0.246;2022-09-09T15:15:12;0.40;;;0.40;;
21497;SDS011;10910;50.932;0.246;2022-09-09T15:17:38;0.40;;;0.40;;
21497;SDS011;10910;50.932;0.246;2022-09-09T15:20:04;0.30;;;0.30;;
21497;SDS011;10910;50.932;0.246;2022-09-09T15:22:33;0.25;;;0.25;;
21497;SDS011;10910;50.932;0.246;2022-09-09T15:25:01;0.20;;;0.20;;
21497;SDS011;10910;50.932;0.246;2022-09-09T15:27:27;0.20;;;0.20;;
21497;SDS011;10910;50.932;0.246;2022-09-09T15:29:56;0.20;;;0.20;;
21497;SDS011;10910;50.932;0.246;2022-09-09T15:32:23;0.20;;;0.20;;
21497;SDS011;10910;50.932;0.246;2022-09-09T15:34:49;0.25;;;0.25;;
21497;SDS011;10910;50.932;0.246;2022-09-09T15:37:16;0.20;;;0.20;;
21497;SDS011;10910;50.932;0.246;2022-09-09T15:39:42;0.20;;;0.20;;
21497;SDS011;10910;50.932;0.246;2022-09-09T15:42:09;0.20;;;0.20;;
21497;SDS011;10910;50.932;0.246;2022-09-09T15:44:39;0.20;;;0.20;;
21497;SDS011;10910;50.932;0.246;2022-09-09T15:47:07;0.30;;;0.30;;
21497;SDS011;10910;50.932;0.246;2022-09-09T15:49:36;0.30;;;0.30;;
21497;SDS011;10910;50.932;0.246;2022-09-09T15:52:03;0.40;;;0.40;;
21497;SDS011;10910;50.932;0.246;2022-09-09T15:54:33;0.30;;;0.30;;
21497;SDS011;10910;50.932;0.246;2022-09-09T15:57:02;0.40;;;0.40;;
21497;SDS011;10910;50.932;0.246;2022-09-09T15:59:29;0.32;;;0.32;;
21497;SDS011;10910;50.932;0.246;2022-09-09T16:01:56;0.30;;;0.30;;
21497;SDS011;10910;50.932;0.246;2022-09-09T16:04:23;0.30;;;0.30;;
21497;SDS011;10910;50.932;0.246;2022-09-09T16:06:50;0.30;;;0.30;;
21497;SDS011;10910;50.932;0.246;2022-09-09T16:09:17;0.40;;;0.40;;
21497;SDS011;10910;50.932;0.246;2022-09-09T16:11:43;0.35;;;0.35;;
21497;SDS011;10910;50.932;0.246;2022-09-09T16:14:09;0.30;;;0.30;;
21497;SDS011;10910;50.932;0.246;2022-09-09T16:16:36;0.40;;;0.40;;
21497;SDS011;10910;50.932;0.246;2022-09-09T16:19:03;0.40;;;0.40;;
21497;SDS011;10910;50.932;0.246;2022-09-09T16:21:32;0.30;;;0.30;;
21497;SDS011;10910;50.932;0.246;2022-09-09T16:24:00;0.30;;;0.30;;
21497;SDS011;10910;50.932;0.246;2022-09-09T16:26:28;0.40;;;0.40;;
21497;SDS011;10910;50.932;0.246;2022-09-09T16:28:55;0.30;;;0.30;;
21497;SDS011;10910;50.932;0.246;2022-09-09T16:31:22;0.40;;;0.40;;
21497;SDS011;10910;50.932;0.246;2022-09-09T16:33:49;0.30;;;0.30;;
21497;SDS011;10910;50.932;0.246;2022-09-09T16:36:19;0.30;;;0.30;;
21497;SDS011;10910;50.932;0.246;2022-09-09T16:38:52;0.40;;;0.40;;
21497;SDS011;10910;50.932;0.246;2022-09-09T16:41:20;0.30;;;0.30;;
21497;SDS011;10910;50.932;0.246;2022-09-09T16:43:46;0.40;;;0.40;;
21497;SDS011;10910;50.932;0.246;2022-09-09T16:46:14;0.40;;;0.40;;